Time;durP1;ratioP1;P1;durP2;ratioP2;P2;SDS_P1;SDS_P2;PMS_P1;PMS_P2;Temp;Humidity;BMP_temperature;BMP_pressure;BME280_temperature;BME280_humidity;BME280_pressure;Samples;Min_cycle;Max_cycle;Signal;HPM_P1;HPM_P2
2021/08/28 00:00:20;;;;;;;3.10;2.00;;;11.90;99.90;;;;;;5054295;28;20055;-93
2021/08/28 00:02:47;;;;;;;2.17;2.08;;;11.90;99.90;;;;;;5053315;28;20136;-93
2021/08/28 00:05:14;;;;;;;2.38;2.28;;;11.80;99.90;;;;;;5052952;28;20478;-93
2021/08/28 00:07:41;;;;;;;2.20;2.10;;;11.90;99.90;;;;;;5053060;28;20553;-93
2021/08/28 00:10:08;;;;;;;2.60;2.35;;;11.90;99.90;;;;;;5052903;28;20040;-93
2021/08/28 00:12:36;;;;;;;2.47;2.28;;;11.90;99.90;;;;;;5052758;28;20144;-93
2021/08/28 00:15:06;;;;;;;4.75;3.05;;;11.90;99.90;;;;;;5052865;28;20131;-93
2021/08/28 00:17:34;;;;;;;3.58;2.58;;;11.90;99.90;;;;;;5052951;28;20056;-93
2021/08/28 00:20:05;;;;;;;2.63;2.53;;;12.00;99.90;;;;;;5052825;28;20143;-93
2021/08/28 00:22:32;;;;;;;2.90;2.80;;;12.00;99.90;;;;;;5052742;28;20049;-93
2021/08/28 00:24:59;;;;;;;3.13;2.92;;;12.00;99.90;;;;;;5052463;28;20053;-93
2021/08/28 00:27:25;;;;;;;3.33;2.97;;;12.00;99.90;;;;;;5053176;28;20124;-93
2021/08/28 00:29:52;;;;;;;3.72;2.65;;;12.00;99.90;;;;;;5056193;28;20140;-93
2021/08/28 00:32:19;;;;;;;2.65;2.55;;;12.00;99.90;;;;;;5056237;28;20081;-93
2021/08/28 00:34:45;;;;;;;4.45;2.75;;;12.00;99.90;;;;;;5056346;28;20072;-94
2021/08/28 00:37:12;;;;;;;3.20;2.75;;;12.10;99.90;;;;;;5056033;28;20082;-93
2021/08/28 00:39:39;;;;;;;3.20;2.35;;;12.10;99.90;;;;;;5055666;28;20412;-93
2021/08/28 00:42:06;;;;;;;2.67;2.58;;;12.10;99.90;;;;;;5056231;28;20090;-93
2021/08/28 00:44:37;;;;;;;3.22;2.50;;;12.10;99.90;;;;;;5055921;28;20516;-94
2021/08/28 00:47:03;;;;;;;2.15;2.05;;;12.10;99.90;;;;;;5056086;28;20071;-93
2021/08/28 00:49:30;;;;;;;2.88;2.67;;;12.20;99.90;;;;;;5055336;28;20058;-93
2021/08/28 00:51:59;;;;;;;2.90;2.70;;;12.10;99.90;;;;;;5055870;28;20050;-93
2021/08/28 00:54:25;;;;;;;2.80;2.70;;;12.00;99.90;;;;;;5055868;28;20058;-93
2021/08/28 00:56:52;;;;;;;2.90;2.70;;;12.00;99.90;;;;;;5055726;28;20044;-93
2021/08/28 00:59:19;;;;;;;2.97;2.75;;;12.00;99.90;;;;;;5055775;28;20053;-93
2021/08/28 01:01:48;;;;;;;3.53;2.70;;;12.10;99.90;;;;;;5055982;28;20044;-93
2021/08/28 01:04:19;;;;;;;3.47;2.30;;;12.00;99.90;;;;;;5056014;28;20546;-93
2021/08/28 01:07:16;;;;;;;3.45;3.15;;;12.00;99.90;;;;;;5055839;28;20468;-93
2021/08/28 01:09:45;;;;;;;2.85;2.65;;;12.00;99.90;;;;;;5047792;28;20044;-93
2021/08/28 01:12:28;;;;;;;2.90;2.63;;;12.00;99.90;;;;;;5057146;28;20048;-93
2021/08/28 01:14:59;;;;;;;2.75;2.60;;;12.00;99.90;;;;;;5074560;28;20545;-93
2021/08/28 01:17:27;;;;;;;2.38;2.28;;;12.00;99.90;;;;;;5058619;28;20054;-93
2021/08/28 01:20:16;;;;;;;3.17;2.47;;;12.00;99.90;;;;;;5055642;28;20075;-93
2021/08/28 01:22:43;;;;;;;2.97;2.78;;;12.00;99.90;;;;;;5056013;28;20127;-93
2021/08/28 01:25:12;;;;;;;3.40;2.85;;;12.00;99.90;;;;;;5055563;28;20047;-93
2021/08/28 01:28:02;;;;;;;3.50;2.50;;;12.10;99.90;;;;;;5055635;28;20063;-93
2021/08/28 01:30:29;;;;;;;2.30;2.20;;;12.00;99.90;;;;;;5055686;28;20049;-93
2021/08/28 01:32:56;;;;;;;5.65;2.70;;;12.00;99.90;;;;;;5055798;28;20139;-93
2021/08/28 01:35:23;;;;;;;2.67;2.40;;;12.00;99.90;;;;;;5055667;28;20055;-93
2021/08/28 01:37:51;;;;;;;5.10;2.17;;;12.00;99.90;;;;;;5055585;28;20482;-93
2021/08/28 01:40:20;;;;;;;2.97;2.47;;;11.90;99.90;;;;;;5055558;28;20048;-93
2021/08/28 01:42:47;;;;;;;3.38;2.88;;;11.90;99.90;;;;;;5055781;28;20052;-93
2021/08/28 01:45:15;;;;;;;3.63;2.95;;;11.90;99.90;;;;;;5055194;28;20487;-93
2021/08/28 01:47:43;;;;;;;4.85;2.50;;;11.90;99.90;;;;;;5055667;28;20552;-93
2021/08/28 01:50:14;;;;;;;3.55;3.28;;;11.90;99.90;;;;;;5055489;28;20545;-93
2021/08/28 01:52:41;;;;;;;2.80;2.60;;;11.90;99.90;;;;;;5055241;28;20052;-93
2021/08/28 01:55:08;;;;;;;4.00;2.42;;;12.00;99.90;;;;;;5056051;28;20056;-92
2021/08/28 01:57:35;;;;;;;3.60;2.65;;;12.00;99.90;;;;;;5055866;28;20124;-93
2021/08/28 02:00:03;;;;;;;3.33;2.65;;;12.00;99.90;;;;;;5056680;28;20053;-93
2021/08/28 02:02:30;;;;;;;5.18;2.70;;;12.00;99.90;;;;;;5058994;28;20044;-93
2021/08/28 02:04:57;;;;;;;2.53;2.22;;;12.00;99.90;;;;;;5058597;28;20052;-93
2021/08/28 02:07:31;;;;;;;2.95;2.70;;;12.00;99.90;;;;;;5058761;28;20135;-93
2021/08/28 02:10:03;;;;;;;3.13;2.92;;;12.00;99.90;;;;;;5058484;28;20132;-93
2021/08/28 02:12:39;;;;;;;3.40;3.10;;;12.10;99.90;;;;;;5058695;28;20055;-93
2021/08/28 02:15:26;;;;;;;2.67;2.53;;;12.10;99.90;;;;;;5058423;28;20053;-93
2021/08/28 02:18:05;;;;;;;5.47;3.03;;;12.10;99.90;;;;;;5058727;28;20045;-92
2021/08/28 02:20:38;;;;;;;4.68;2.72;;;12.10;99.90;;;;;;5058488;28;20049;-93
2021/08/28 02:23:09;;;;;;;3.60;3.40;;;12.10;99.90;;;;;;5058576;28;20123;-93
2021/08/28 02:26:22;;;;;;;3.33;3.17;;;12.00;99.90;;;;;;5058674;28;20131;-93
2021/08/28 02:28:54;;;;;;;3.15;2.78;;;12.10;99.90;;;;;;5055862;28;20052;-93
2021/08/28 02:31:24;;;;;;;5.97;2.97;;;12.00;99.90;;;;;;5059407;28;20054;-93
2021/08/28 02:33:53;;;;;;;2.83;2.60;;;12.10;99.90;;;;;;5077707;28;20044;-93
2021/08/28 02:36:20;;;;;;;3.50;3.20;;;12.10;99.90;;;;;;5060425;28;20055;-92
2021/08/28 02:38:49;;;;;;;4.38;2.85;;;12.10;99.90;;;;;;5058088;28;20049;-93
2021/08/28 02:41:17;;;;;;;2.95;2.83;;;12.10;99.90;;;;;;5058092;28;20515;-93
2021/08/28 02:43:45;;;;;;;5.70;3.45;;;12.10;99.90;;;;;;5058277;28;20071;-93
2021/08/28 02:46:14;;;;;;;4.05;3.45;;;12.10;99.90;;;;;;5058238;28;20086;-93
2021/08/28 02:48:43;;;;;;;5.22;3.40;;;12.10;99.90;;;;;;5058159;28;20048;-93
2021/08/28 02:51:10;;;;;;;6.25;3.88;;;12.10;99.90;;;;;;5058052;28;20062;-93
2021/08/28 02:53:44;;;;;;;5.65;3.97;;;12.10;99.90;;;;;;5058253;28;20127;-92
2021/08/28 02:56:11;;;;;;;3.55;3.25;;;12.10;99.90;;;;;;5057907;28;20044;-93
2021/08/28 02:58:39;;;;;;;6.63;4.25;;;12.10;99.90;;;;;;5057810;28;20046;-93
2021/08/28 03:01:07;;;;;;;5.75;4.43;;;12.10;99.90;;;;;;5057874;28;20442;-93
2021/08/28 03:03:35;;;;;;;6.25;4.60;;;12.10;99.90;;;;;;5057855;28;20059;-93
2021/08/28 03:06:03;;;;;;;6.75;3.65;;;12.20;99.90;;;;;;5057723;28;20048;-93
2021/08/28 03:08:31;;;;;;;6.70;3.95;;;12.20;99.90;;;;;;5057630;28;20044;-93
2021/08/28 03:10:58;;;;;;;3.67;3.22;;;12.20;99.90;;;;;;5056853;28;20076;-93
2021/08/28 03:13:26;;;;;;;4.90;3.35;;;12.20;99.90;;;;;;5057788;28;20132;-93
2021/08/28 03:15:54;;;;;;;3.60;3.30;;;12.20;99.90;;;;;;5057487;28;20056;-93
2021/08/28 03:18:24;;;;;;;3.22;2.92;;;12.20;99.90;;;;;;5057591;28;20048;-92
2021/08/28 03:20:54;;;;;;;6.03;3.95;;;12.20;99.90;;;;;;5057136;28;20048;-92
2021/08/28 03:23:30;;;;;;;3.92;3.17;;;12.20;99.90;;;;;;5057507;28;20127;-93
2021/08/28 03:25:58;;;;;;;5.18;3.80;;;12.20;99.90;;;;;;5057448;28;20543;-92
2021/08/28 03:28:27;;;;;;;3.20;3.00;;;12.20;99.90;;;;;;5053352;28;20113;-93
2021/08/28 03:30:54;;;;;;;4.70;3.45;;;12.10;99.90;;;;;;5053843;28;20139;-92
2021/08/28 03:33:21;;;;;;;3.60;3.30;;;12.10;99.90;;;;;;5053821;28;20049;-92
2021/08/28 03:35:50;;;;;;;5.97;3.30;;;12.10;99.90;;;;;;5053848;28;20049;-92
2021/08/28 03:38:17;;;;;;;6.85;3.47;;;12.10;99.90;;;;;;5053796;28;20052;-93
2021/08/28 03:40:45;;;;;;;3.63;3.42;;;12.10;99.90;;;;;;5053278;28;20487;-92
2021/08/28 03:43:13;;;;;;;4.85;3.40;;;12.20;99.90;;;;;;5053447;28;20052;-92
2021/08/28 03:45:40;;;;;;;3.90;3.60;;;12.10;99.90;;;;;;5053717;28;20506;-92
2021/08/28 03:48:08;;;;;;;4.45;4.07;;;12.20;99.90;;;;;;5053533;28;20075;-92
2021/08/28 03:50:34;;;;;;;4.20;3.50;;;12.10;99.90;;;;;;5054983;28;20048;-92
2021/08/28 03:53:01;;;;;;;5.10;3.90;;;12.10;99.90;;;;;;5060221;28;20128;-92
2021/08/28 03:55:28;;;;;;;5.57;4.50;;;12.10;99.90;;;;;;5053220;28;20075;-91
2021/08/28 03:57:55;;;;;;;5.40;5.00;;;12.10;99.90;;;;;;5053403;28;20065;-92
2021/08/28 04:00:22;;;;;;;4.60;4.20;;;12.10;99.90;;;;;;5053214;28;20424;-92
2021/08/28 04:02:49;;;;;;;5.55;4.55;;;12.10;99.90;;;;;;5053261;28;20049;-92
2021/08/28 04:05:16;;;;;;;6.68;4.43;;;12.10;99.90;;;;;;5053226;28;20071;-92
2021/08/28 04:07:42;;;;;;;7.32;4.80;;;12.10;99.90;;;;;;5053180;28;20502;-91
2021/08/28 04:10:09;;;;;;;6.38;4.75;;;12.10;99.90;;;;;;5053003;28;20409;-92
2021/08/28 04:12:36;;;;;;;4.93;4.47;;;12.10;99.90;;;;;;5053023;28;20064;-91
2021/08/28 04:15:05;;;;;;;6.60;4.75;;;12.20;99.90;;;;;;5052717;28;20124;-92
2021/08/28 04:17:32;;;;;;;5.88;4.90;;;12.10;99.90;;;;;;5053010;28;20049;-92
2021/08/28 04:19:59;;;;;;;6.18;5.35;;;12.10;99.90;;;;;;5052956;28;20498;-92
2021/08/28 04:22:25;;;;;;;4.85;4.45;;;12.10;99.90;;;;;;5053284;28;20482;-92
2021/08/28 04:24:52;;;;;;;5.80;5.20;;;12.10;99.90;;;;;;5053287;28;20171;-92
2021/08/28 04:27:19;;;;;;;9.60;6.05;;;12.10;99.90;;;;;;5052844;28;20075;-92
2021/08/28 04:29:45;;;;;;;6.97;5.45;;;12.00;99.90;;;;;;5052534;28;20060;-92
2021/08/28 04:32:12;;;;;;;10.50;7.00;;;12.00;99.90;;;;;;5052929;28;20437;-92
2021/08/28 04:34:39;;;;;;;6.68;6.07;;;12.00;99.90;;;;;;5052543;28;20075;-92
2021/08/28 04:37:06;;;;;;;11.57;7.43;;;12.10;99.90;;;;;;5052647;28;20137;-93
2021/08/28 04:39:32;;;;;;;9.65;7.43;;;12.10;99.90;;;;;;5052697;28;20064;-92
2021/08/28 04:41:59;;;;;;;14.00;7.55;;;12.10;99.90;;;;;;5052566;28;20049;-92
2021/08/28 04:44:26;;;;;;;17.15;9.00;;;12.00;99.90;;;;;;5052743;28;20049;-93
2021/08/28 04:46:52;;;;;;;11.25;8.10;;;12.00;99.90;;;;;;5052236;28;20584;-92
2021/08/28 04:49:19;;;;;;;17.50;10.50;;;12.00;99.90;;;;;;5052490;28;20071;-92
2021/08/28 04:51:46;;;;;;;13.63;10.25;;;12.00;99.90;;;;;;5052271;28;20045;-92
2021/08/28 04:54:13;;;;;;;10.32;9.07;;;11.90;99.90;;;;;;5053803;28;20051;-91
2021/08/28 04:56:39;;;;;;;9.20;8.27;;;11.90;99.90;;;;;;5053154;28;20049;-92
2021/08/28 04:59:06;;;;;;;9.02;8.25;;;12.00;99.90;;;;;;5052521;28;20132;-92
2021/08/28 05:01:33;;;;;;;9.23;8.02;;;12.10;99.90;;;;;;5052363;28;20136;-93
2021/08/28 05:04:00;;;;;;;8.30;7.47;;;12.10;99.90;;;;;;5052254;28;20049;-92
2021/08/28 05:06:27;;;;;;;9.82;8.93;;;12.20;99.90;;;;;;5052353;28;20132;-92
2021/08/28 05:08:54;;;;;;;11.65;9.85;;;12.20;99.90;;;;;;5053559;28;20051;-92
2021/08/28 05:11:21;;;;;;;10.25;7.45;;;12.20;99.90;;;;;;5061246;28;20084;-92
2021/08/28 05:13:47;;;;;;;12.52;10.30;;;12.30;99.90;;;;;;5053314;28;20057;-92
2021/08/28 05:16:14;;;;;;;12.80;9.63;;;12.30;99.90;;;;;;5052051;28;20055;-92
2021/08/28 05:18:42;;;;;;;11.05;9.40;;;12.40;99.90;;;;;;5053039;28;20132;-92
2021/08/28 05:21:08;;;;;;;9.73;8.77;;;12.40;99.90;;;;;;5052138;28;20053;-92
2021/08/28 05:23:35;;;;;;;11.85;9.32;;;12.40;99.90;;;;;;5052534;28;20045;-92
2021/08/28 05:26:02;;;;;;;10.38;9.38;;;12.40;99.90;;;;;;5052653;28;20049;-92
2021/08/28 05:28:29;;;;;;;9.55;8.55;;;12.50;99.90;;;;;;5052201;28;20140;-92
2021/08/28 05:30:56;;;;;;;9.15;8.30;;;12.50;99.90;;;;;;5052208;28;20045;-92
2021/08/28 05:33:23;;;;;;;8.93;8.07;;;12.60;99.90;;;;;;5052237;28;20053;-92
2021/08/28 05:35:50;;;;;;;9.43;8.52;;;12.60;99.90;;;;;;5055111;28;20493;-92
2021/08/28 05:38:17;;;;;;;9.68;8.88;;;12.60;99.90;;;;;;5056811;28;20545;-91
2021/08/28 05:40:44;;;;;;;9.57;8.77;;;12.60;99.90;;;;;;5056005;28;20048;-93
2021/08/28 05:43:11;;;;;;;9.15;8.35;;;12.60;99.90;;;;;;5056365;28;20071;-92
2021/08/28 05:45:38;;;;;;;9.75;8.85;;;12.70;99.90;;;;;;5057415;28;20096;-91
2021/08/28 05:48:05;;;;;;;8.95;8.05;;;12.80;99.90;;;;;;5056224;28;20053;-92
2021/08/28 05:50:31;;;;;;;11.23;9.05;;;12.90;99.90;;;;;;5056588;28;20394;-92
2021/08/28 05:52:58;;;;;;;8.95;8.05;;;12.90;99.90;;;;;;5056211;28;20060;-92
2021/08/28 05:55:25;;;;;;;13.88;12.30;;;13.00;99.90;;;;;;5056298;28;20148;-91
2021/08/28 05:57:52;;;;;;;13.10;11.80;;;13.00;99.90;;;;;;5056431;28;20400;-93
2021/08/28 06:00:18;;;;;;;13.07;11.40;;;13.00;99.90;;;;;;5056097;28;20041;-92
2021/08/28 06:02:45;;;;;;;12.13;11.02;;;13.20;99.90;;;;;;5056042;28;20166;-92
2021/08/28 06:05:12;;;;;;;9.63;7.88;;;13.30;99.90;;;;;;5055776;28;20482;-92
2021/08/28 06:07:40;;;;;;;9.93;8.98;;;13.30;99.90;;;;;;5056028;28;20049;-92
2021/08/28 06:10:07;;;;;;;7.95;7.20;;;13.40;99.90;;;;;;5055950;28;20106;-92
2021/08/28 06:12:36;;;;;;;7.05;6.38;;;13.50;99.90;;;;;;5055881;28;20045;-92
2021/08/28 06:15:05;;;;;;;6.40;5.90;;;13.60;99.90;;;;;;5055915;28;20057;-93
2021/08/28 06:17:33;;;;;;;51.63;35.65;;;13.60;99.90;;;;;;5055885;28;20106;-92
2021/08/28 06:20:00;;;;;;;71.57;57.47;;;13.60;99.90;;;;;;5055426;28;20136;-91
2021/08/28 06:22:27;;;;;;;31.05;28.00;;;13.60;99.90;;;;;;5055580;28;20041;-93
2021/08/28 06:24:54;;;;;;;9.70;8.75;;;13.50;99.90;;;;;;5055859;28;20049;-91
2021/08/28 06:27:20;;;;;;;13.13;11.93;;;13.40;99.90;;;;;;5058359;28;20140;-93
2021/08/28 06:29:47;;;;;;;6.68;6.05;;;13.30;99.90;;;;;;5065713;28;20545;-92
2021/08/28 06:32:14;;;;;;;9.02;8.32;;;13.30;99.90;;;;;;5056388;28;20496;-91
2021/08/28 06:34:41;;;;;;;10.50;9.50;;;13.30;99.90;;;;;;5055371;28;20051;-91
2021/08/28 06:37:07;;;;;;;14.40;13.00;;;13.40;99.90;;;;;;5055215;28;20044;-90
2021/08/28 06:39:34;;;;;;;114.82;82.80;;;13.40;99.90;;;;;;5055293;28;20079;-91
2021/08/28 06:42:02;;;;;;;9.73;8.82;;;13.30;99.90;;;;;;5054749;28;20072;-90
2021/08/28 06:44:28;;;;;;;20.77;15.05;;;13.20;99.90;;;;;;5055251;28;20128;-90
2021/08/28 06:46:56;;;;;;;9.00;8.20;;;13.20;99.90;;;;;;5056197;28;20113;-90
2021/08/28 06:49:22;;;;;;;10.40;9.52;;;13.10;99.90;;;;;;5056854;28;20048;-89
2021/08/28 06:51:49;;;;;;;11.70;10.48;;;13.20;99.90;;;;;;5054954;28;20055;-89
2021/08/28 06:54:16;;;;;;;13.32;12.02;;;13.20;99.90;;;;;;5055114;28;20507;-89
2021/08/28 06:56:45;;;;;;;16.20;14.48;;;13.20;99.90;;;;;;5054732;28;20041;-89
2021/08/28 06:59:12;;;;;;;14.40;12.98;;;13.30;99.90;;;;;;5054906;28;20071;-90
2021/08/28 07:01:39;;;;;;;13.43;12.13;;;13.10;99.90;;;;;;5054477;28;20052;-89
2021/08/28 07:04:06;;;;;;;12.25;11.15;;;13.10;99.90;;;;;;5054612;28;20051;-88
2021/08/28 07:06:33;;;;;;;18.70;16.67;;;13.00;99.90;;;;;;5054439;28;20049;-87
2021/08/28 07:09:02;;;;;;;14.13;12.18;;;12.90;99.90;;;;;;5054142;28;20049;-86
2021/08/28 07:11:29;;;;;;;10.45;9.55;;;12.80;99.90;;;;;;5054321;28;20136;-86
2021/08/28 07:13:58;;;;;;;13.27;10.80;;;12.80;99.90;;;;;;5054150;28;20056;-86
2021/08/28 07:16:25;;;;;;;16.98;13.40;;;12.70;99.90;;;;;;5053995;28;20476;-87
2021/08/28 07:18:52;;;;;;;14.52;13.10;;;12.70;99.90;;;;;;5054198;28;20098;-87
2021/08/28 07:21:19;;;;;;;39.92;27.77;;;12.70;99.90;;;;;;5054160;28;20055;-88
2021/08/28 07:23:47;;;;;;;34.33;24.20;;;12.80;99.90;;;;;;5054152;28;20047;-88
2021/08/28 07:26:15;;;;;;;25.98;19.10;;;12.90;99.90;;;;;;5054161;28;20064;-88
2021/08/28 07:28:43;;;;;;;29.13;20.92;;;13.20;99.90;;;;;;5053681;28;20080;-88
2021/08/28 07:31:09;;;;;;;10.88;9.88;;;13.20;99.90;;;;;;5054118;28;20059;-89
2021/08/28 07:33:36;;;;;;;8.73;8.13;;;13.40;99.90;;;;;;5054246;28;20045;-90
2021/08/28 07:36:03;;;;;;;7.45;6.75;;;13.80;99.90;;;;;;5054103;28;20073;-90
2021/08/28 07:38:30;;;;;;;5.97;5.47;;;14.30;99.90;;;;;;5054163;28;20055;-90
2021/08/28 07:40:57;;;;;;;6.28;5.78;;;14.40;99.90;;;;;;5053838;28;20557;-88
2021/08/28 07:43:24;;;;;;;6.07;5.68;;;14.30;99.90;;;;;;5053973;28;20056;-90
2021/08/28 07:45:50;;;;;;;6.13;5.72;;;14.20;99.90;;;;;;5053929;28;20065;-90
2021/08/28 07:48:17;;;;;;;6.30;5.55;;;14.00;99.90;;;;;;5054007;28;20044;-91
2021/08/28 07:50:44;;;;;;;5.13;4.82;;;13.90;99.90;;;;;;5053710;28;20482;-90
2021/08/28 07:53:11;;;;;;;5.43;5.13;;;13.90;99.90;;;;;;5054034;28;20376;-90
2021/08/28 07:55:38;;;;;;;5.82;5.32;;;13.80;99.90;;;;;;5054028;28;20063;-92
2021/08/28 07:58:04;;;;;;;5.18;4.88;;;13.80;99.90;;;;;;5053915;28;20141;-92
2021/08/28 08:00:31;;;;;;;4.30;4.10;;;13.80;99.90;;;;;;5054311;28;20053;-92
2021/08/28 08:02:58;;;;;;;4.60;4.40;;;13.90;99.90;;;;;;5053883;28;20102;-92
2021/08/28 08:05:25;;;;;;;3.88;3.53;;;14.10;99.90;;;;;;5054308;28;20049;-92
2021/08/28 08:07:52;;;;;;;4.50;4.10;;;14.50;99.90;;;;;;5054435;28;20581;-91
2021/08/28 08:10:19;;;;;;;5.60;5.25;;;14.70;99.90;;;;;;5054291;28;20056;-92
2021/08/28 08:12:45;;;;;;;5.10;4.80;;;14.60;99.90;;;;;;5053913;28;20156;-90
2021/08/28 08:15:12;;;;;;;6.28;5.75;;;14.80;99.90;;;;;;5053741;28;20131;-88
2021/08/28 08:17:39;;;;;;;5.82;5.32;;;14.70;99.90;;;;;;5053922;28;20079;-90
2021/08/28 08:20:10;;;;;;;6.75;6.25;;;14.50;99.90;;;;;;5058816;28;20049;-89
2021/08/28 08:22:37;;;;;;;6.10;5.70;;;14.30;99.90;;;;;;5057296;28;20052;-89
2021/08/28 08:25:04;;;;;;;5.25;4.95;;;14.20;99.90;;;;;;5053034;28;20132;-90
2021/08/28 08:27:31;;;;;;;15.60;5.45;;;14.20;99.90;;;;;;5054134;28;20045;-89
2021/08/28 08:29:58;;;;;;;11.50;5.50;;;14.10;99.90;;;;;;5056689;28;20136;-90
2021/08/28 08:32:25;;;;;;;65.95;8.63;;;14.00;99.90;;;;;;5056545;28;20056;-90
2021/08/28 08:34:53;;;;;;;14.52;4.68;;;14.20;99.90;;;;;;5056291;28;20135;-91
2021/08/28 08:37:20;;;;;;;5.85;5.38;;;14.20;99.90;;;;;;5056705;28;20131;-91
2021/08/28 08:39:47;;;;;;;6.20;5.68;;;14.20;99.90;;;;;;5056162;28;20557;-92
2021/08/28 08:42:17;;;;;;;5.63;5.22;;;14.10;99.90;;;;;;5056210;28;20127;-92
2021/08/28 08:44:47;;;;;;;6.65;6.18;;;14.00;99.90;;;;;;5056302;28;20167;-92
2021/08/28 08:47:15;;;;;;;6.47;5.97;;;14.20;99.90;;;;;;5056185;28;20076;-92
2021/08/28 08:49:43;;;;;;;6.05;5.65;;;14.60;99.90;;;;;;5056719;28;20048;-91
2021/08/28 08:52:11;;;;;;;5.18;4.95;;;15.00;99.90;;;;;;5057244;28;20464;-92
2021/08/28 08:54:38;;;;;;;4.13;3.92;;;15.60;99.90;;;;;;5056291;28;20116;-94
2021/08/28 08:57:05;;;;;;;3.22;3.13;;;17.50;99.90;;;;;;5056432;28;20116;-94
2021/08/28 08:59:33;;;;;;;8.05;3.45;;;18.20;99.90;;;;;;5056226;28;20057;-93
2021/08/28 09:02:02;;;;;;;6.80;3.42;;;18.60;99.90;;;;;;5056074;28;20078;-94
2021/08/28 09:04:29;;;;;;;8.15;3.88;;;18.30;99.90;;;;;;5056164;28;20040;-94
2021/08/28 09:06:56;;;;;;;5.22;3.70;;;18.20;99.90;;;;;;5056193;28;20514;-94
2021/08/28 09:09:23;;;;;;;6.75;3.60;;;17.80;99.90;;;;;;5057297;28;20081;-94
2021/08/28 09:11:59;;;;;;;6.75;5.15;;;17.60;99.90;;;;;;5062494;28;20056;-94
2021/08/28 09:14:26;;;;;;;8.88;4.30;;;17.30;99.90;;;;;;5061907;28;20155;-94
2021/08/28 09:16:53;;;;;;;4.80;4.40;;;18.00;99.90;;;;;;5060176;28;20055;-95
2021/08/28 09:19:39;;;;;;;4.60;4.20;;;19.20;99.90;;;;;;5060092;28;20055;-94
2021/08/28 09:22:27;;;;;;;4.85;4.45;;;19.10;99.90;;;;;;5059826;28;20048;-94
2021/08/28 09:25:01;;;;;;;4.43;4.20;;;18.70;99.90;;;;;;5059741;28;20139;-95
2021/08/28 09:27:32;;;;;;;5.45;5.05;;;18.30;99.90;;;;;;5060202;28;20135;-95
2021/08/28 09:30:00;;;;;;;4.32;4.13;;;17.50;99.90;;;;;;5059887;28;20136;-95
2021/08/28 09:32:27;;;;;;;4.28;3.97;;;17.10;99.90;;;;;;5060118;28;20052;-96
2021/08/28 09:35:07;;;;;;;4.90;4.50;;;16.70;99.90;;;;;;5059769;28;20044;-95
2021/08/28 09:37:33;;;;;;;5.57;5.18;;;16.60;99.90;;;;;;5061318;28;20131;-95
2021/08/28 09:40:01;;;;;;;4.95;4.60;;;16.40;99.90;;;;;;5075574;28;20116;-95
2021/08/28 09:42:28;;;;;;;6.00;5.60;;;16.40;99.90;;;;;;5064346;28;20582;-95
2021/08/28 09:44:55;;;;;;;5.63;5.22;;;16.50;99.90;;;;;;5059402;28;20040;-94
2021/08/28 09:47:30;;;;;;;4.53;4.18;;;17.20;99.90;;;;;;5059542;28;20052;-94
2021/08/28 09:49:57;;;;;;;3.55;3.28;;;18.70;99.90;;;;;;5059701;28;20135;-94
2021/08/28 09:52:26;;;;;;;3.25;2.35;;;21.20;99.90;;;;;;5059550;28;20052;-92
2021/08/28 09:54:54;;;;;;;2.42;2.22;;;23.30;99.90;;;;;;5059339;28;20135;-93
2021/08/28 09:57:31;;;;;;;2.15;1.95;;;25.40;99.90;;;;;;5059450;28;20072;-92
2021/08/28 09:59:59;;;;;;;2.38;1.80;;;27.50;99.90;;;;;;5059348;28;20072;-90
2021/08/28 10:02:28;;;;;;;1.75;1.65;;;27.20;99.90;;;;;;5059525;28;20090;-91
2021/08/28 10:04:58;;;;;;;2.88;1.63;;;27.20;95.10;;;;;;5059103;28;20049;-91
2021/08/28 10:07:28;;;;;;;2.67;1.67;;;25.70;95.90;;;;;;5059233;28;20072;-91
2021/08/28 10:10:02;;;;;;;1.67;1.60;;;26.10;96.50;;;;;;5059237;28;20139;-91
2021/08/28 10:12:33;;;;;;;3.75;1.73;;;25.00;96.70;;;;;;5059418;28;20060;-92
2021/08/28 10:15:03;;;;;;;2.88;2.67;;;23.50;99.90;;;;;;5058748;28;20095;-92
2021/08/28 10:17:31;;;;;;;2.58;2.33;;;22.30;99.90;;;;;;5058969;28;20048;-89
2021/08/28 10:19:58;;;;;;;6.80;4.30;;;20.60;99.90;;;;;;5058630;28;20049;-87
2021/08/28 10:22:31;;;;;;;153.88;82.03;;;19.40;99.90;;;;;;5058474;28;20048;-88
2021/08/28 10:25:03;;;;;;;47.20;23.38;;;18.10;99.90;;;;;;5058776;28;20045;-87
2021/08/28 10:27:30;;;;;;;26.63;14.02;;;17.10;99.90;;;;;;5058271;28;20573;-86
2021/08/28 10:29:57;;;;;;;36.80;22.55;;;16.30;99.90;;;;;;5058445;28;20054;-88
2021/08/28 10:32:24;;;;;;;4.75;4.35;;;15.80;99.90;;;;;;5058413;28;20056;-87
2021/08/28 10:34:51;;;;;;;56.58;30.02;;;15.40;99.90;;;;;;5058357;28;20054;-88
2021/08/28 10:37:19;;;;;;;11.90;7.97;;;15.30;99.90;;;;;;5058401;28;20045;-88
2021/08/28 10:39:51;;;;;;;82.05;47.33;;;15.10;99.90;;;;;;5076047;28;20105;-88
2021/08/28 10:42:20;;;;;;;4.80;4.40;;;14.90;99.90;;;;;;5058405;28;20053;-90
2021/08/28 10:44:51;;;;;;;2.75;2.55;;;15.00;99.90;;;;;;5058142;28;20053;-89
2021/08/28 10:47:27;;;;;;;3.20;3.00;;;15.20;99.90;;;;;;5058525;28;20048;-91
2021/08/28 10:49:57;;;;;;;2.63;2.40;;;15.40;99.90;;;;;;5058240;28;20505;-90
2021/08/28 10:52:26;;;;;;;10.65;9.65;;;15.40;99.90;;;;;;5058040;28;20505;-90
2021/08/28 10:55:06;;;;;;;4.00;1.75;;;15.30;99.90;;;;;;5058104;28;20045;-90
2021/08/28 10:57:33;;;;;;;1.80;1.70;;;15.50;99.90;;;;;;5060961;28;20127;-91
2021/08/28 11:00:05;;;;;;;2.85;1.55;;;15.80;99.90;;;;;;5076294;28;20390;-91
2021/08/28 11:02:51;;;;;;;3.65;1.45;;;16.60;99.90;;;;;;5057965;28;20055;-93
2021/08/28 11:05:22;;;;;;;1.33;0.90;;;17.80;99.90;;;;;;5075690;28;20052;-94
2021/08/28 11:07:51;;;;;;;1.30;0.60;;;18.50;99.90;;;;;;5058145;28;20053;-94
2021/08/28 11:10:28;;;;;;;0.60;0.60;;;19.70;99.90;;;;;;5057977;28;20519;-95
2021/08/28 11:13:00;;;;;;;1.00;0.88;;;21.00;99.90;;;;;;5058543;28;20059;-93
2021/08/28 11:15:30;;;;;;;1.10;1.10;;;21.60;99.90;;;;;;5058382;28;20135;-95
2021/08/28 11:18:01;;;;;;;1.50;1.00;;;21.40;99.90;;;;;;5058000;28;20060;-94
2021/08/28 11:20:40;;;;;;;1.13;1.10;;;21.10;99.90;;;;;;5058762;28;20044;-96
2021/08/28 11:23:11;;;;;;;1.17;1.10;;;20.00;99.90;;;;;;5058563;28;20046;-94
2021/08/28 11:25:46;;;;;;;0.73;0.73;;;19.20;99.90;;;;;;5057703;28;20048;-95
2021/08/28 11:28:14;;;;;;;1.75;1.05;;;18.90;99.90;;;;;;5053829;28;20059;-94
2021/08/28 11:30:44;;;;;;;0.88;0.88;;;19.10;99.90;;;;;;5054966;28;20508;-95
2021/08/28 11:33:21;;;;;;;1.05;0.90;;;18.80;99.90;;;;;;5053226;28;20049;-94
2021/08/28 11:35:50;;;;;;;6.22;1.67;;;19.40;99.90;;;;;;5054303;28;20497;-94
2021/08/28 11:38:25;;;;;;;6.13;1.33;;;20.10;99.90;;;;;;5054342;28;20049;-93
2021/08/28 11:41:20;;;;;;;7.90;1.73;;;20.60;99.90;;;;;;5054119;28;20069;-94
2021/08/28 11:43:47;;;;;;;;;;;20.50;99.90;;;;;;5054270;28;20473;-93
2021/08/28 11:46:16;;;;;;;3.15;1.30;;;19.70;99.90;;;;;;5053897;28;19921;-93
2021/08/28 11:48:45;;;;;;;3.33;1.40;;;19.50;99.90;;;;;;5053708;28;20045;-92
2021/08/28 11:51:23;;;;;;;2.25;2.13;;;19.40;99.90;;;;;;5053701;28;20113;-93
2021/08/28 11:53:55;;;;;;;5.43;1.42;;;19.10;99.90;;;;;;5053592;28;20071;-93
2021/08/28 11:56:24;;;;;;;1.40;1.30;;;19.40;99.90;;;;;;5053717;28;20048;-93
2021/08/28 11:59:00;;;;;;;1.38;1.23;;;19.20;99.90;;;;;;5053361;28;20065;-92
2021/08/28 12:01:30;;;;;;;4.07;0.95;;;19.40;99.90;;;;;;5053591;28;20059;-92
2021/08/28 12:04:03;;;;;;;1.05;1.05;;;19.40;99.90;;;;;;5053530;28;20143;-92
2021/08/28 12:06:32;;;;;;;2.20;1.02;;;19.30;99.90;;;;;;5053240;28;20147;-93
2021/08/28 12:08:59;;;;;;;2.97;0.98;;;19.20;99.90;;;;;;5053225;28;20056;-91
2021/08/28 12:11:27;;;;;;;1.40;1.27;;;19.40;99.90;;;;;;5053660;28;20136;-91
2021/08/28 12:13:57;;;;;;;1.17;1.13;;;19.60;99.90;;;;;;5053350;28;20149;-91
2021/08/28 12:16:27;;;;;;;0.98;0.98;;;19.80;99.90;;;;;;5067855;28;20077;-90
2021/08/28 12:18:59;;;;;;;2.00;1.63;;;19.40;99.90;;;;;;5058837;28;20486;-93
2021/08/28 12:21:28;;;;;;;1.75;0.80;;;18.60;99.90;;;;;;5053286;28;20084;-93
2021/08/28 12:23:55;;;;;;;1.58;1.30;;;18.00;99.90;;;;;;5053636;28;20136;-93
2021/08/28 12:26:22;;;;;;;2.85;1.00;;;17.30;99.90;;;;;;5053045;28;20049;-93
2021/08/28 12:28:49;;;;;;;1.45;1.30;;;16.90;99.90;;;;;;5050319;28;20055;-93
2021/08/28 12:31:17;;;;;;;3.05;1.40;;;16.40;99.90;;;;;;5053230;28;20061;-92
2021/08/28 12:33:45;;;;;;;2.70;1.45;;;16.20;99.90;;;;;;5053205;28;20060;-93
2021/08/28 12:36:30;;;;;;;1.33;1.33;;;16.00;99.90;;;;;;5052956;28;20131;-94
2021/08/28 12:39:02;;;;;;;2.40;2.28;;;15.90;99.90;;;;;;5052764;28;20492;-95
2021/08/28 12:41:29;;;;;;;1.90;1.80;;;15.70;99.90;;;;;;5053323;28;20512;-95
2021/08/28 12:43:56;;;;;;;2.15;1.77;;;15.70;99.90;;;;;;5053118;28;20049;-94
2021/08/28 12:46:23;;;;;;;1.48;1.48;;;15.80;99.90;;;;;;5052584;28;20416;-94
2021/08/28 12:49:17;;;;;;;1.67;1.60;;;16.00;99.90;;;;;;5053057;28;20073;-94
2021/08/28 12:51:57;;;;;;;1.53;1.53;;;16.30;99.90;;;;;;5052978;28;20049;-94